Time;durP1;ratioP1;P1;durP2;ratioP2;P2;SDS_P1;SDS_P2;PMS_P1;PMS_P2;Temp;Humidity;BMP_temperature;BMP_pressure;BME280_temperature;BME280_humidity;BME280_pressure;Samples;Min_cycle;Max_cycle;Signal;HPM_P1;HPM_P2
2023/11/30 00:00:17;;;;;;;;;;;26.40;2201.60;;;;;;4971855;28;20366;-73
2023/11/30 00:02:43;;;;;;;;;;;26.30;2201.60;;;;;;4994680;28;20363;-73
2023/11/30 00:05:09;;;;;;;;;;;26.50;2201.60;;;;;;4989572;28;19922;-72
2023/11/30 00:07:34;;;;;;;;;;;51.30;2227.20;;;;;;4975050;28;19945;-72
2023/11/30 00:10:00;;;;;;;;;;;51.20;2227.20;;;;;;4975226;28;19906;-72
2023/11/30 00:12:25;;;;;;;;;;;26.50;2201.60;;;;;;4975391;28;19906;-73
2023/11/30 00:14:51;;;;;;;;;;;26.40;2201.60;;;;;;4975054;28;20380;-74
2023/11/30 00:17:16;;;;;;;;;;;26.40;2201.60;;;;;;4975140;28;20275;-72
2023/11/30 00:19:42;;;;;;;;;;;26.30;2201.60;;;;;;4970483;28;20328;-73
2023/11/30 00:22:07;;;;;;;;;;;26.30;2201.60;;;;;;4963644;28;20296;-72
2023/11/30 00:24:33;;;;;;;;;;;26.30;2201.60;;;;;;4974926;28;19906;-73
2023/11/30 00:26:59;;;;;;;;;;;26.30;2201.60;;;;;;4974804;28;19918;-72
2023/11/30 00:29:24;;;;;;;;;;;26.30;2201.60;;;;;;4973670;28;19906;-72
2023/11/30 00:31:50;;;;;;;;;;;26.40;2201.60;;;;;;4974905;28;19913;-73
2023/11/30 00:34:15;;;;;;;;;;;26.40;2201.60;;;;;;4974805;28;19906;-73
2023/11/30 00:36:41;;;;;;;;;;;26.40;2201.60;;;;;;4974824;28;19960;-73
2023/11/30 00:39:07;;;;;;;;;;;26.30;2201.60;;;;;;4974766;28;19906;-72
2023/11/30 00:41:32;;;;;;;;;;;26.40;2201.60;;;;;;4973540;28;20348;-73
2023/11/30 00:43:58;;;;;;;;;;;26.40;2201.60;;;;;;4974830;28;19983;-74
2023/11/30 00:46:23;;;;;;;;;;;26.40;2201.60;;;;;;4974651;28;19914;-73
2023/11/30 00:48:49;;;;;;;;;;;26.40;2201.60;;;;;;4974683;28;19981;-73
2023/11/30 00:51:15;;;;;;;;;;;26.50;2201.60;;;;;;4974492;28;20307;-74
2023/11/30 00:53:40;;;;;;;;;;;26.50;2201.60;;;;;;4974601;28;20375;-73
2023/11/30 00:56:06;;;;;;;;;;;26.40;2201.60;;;;;;4974584;28;19953;-73
2023/11/30 00:58:32;;;;;;;;;;;26.50;2201.60;;;;;;4974549;28;19949;-72
2023/11/30 01:00:58;;;;;;;;;;;26.40;2201.60;;;;;;4974693;28;19906;-73
2023/11/30 01:03:24;;;;;;;;;;;26.40;2201.60;;;;;;4974526;28;19949;-73
2023/11/30 01:05:49;;;;;;;;;;;26.40;2201.60;;;;;;4974483;28;19957;-74
2023/11/30 01:08:15;;;;;;;;;;;26.40;2201.60;;;;;;4974491;28;19906;-74
2023/11/30 01:10:41;;;;;;;;;;;26.40;2201.60;;;;;;4957037;28;20340;-73
2023/11/30 01:13:07;;;;;;;;;;;26.30;2201.60;;;;;;4974528;28;19906;-73
2023/11/30 01:15:32;;;;;;;;;;;26.40;2201.60;;;;;;4974770;28;19906;-73
2023/11/30 01:17:58;;;;;;;;;;;26.40;2201.60;;;;;;4978380;28;19910;-73
2023/11/30 01:20:24;;;;;;;;;;;26.50;2201.60;;;;;;4978296;28;19972;-74
2023/11/30 01:22:49;;;;;;;;;;;26.50;2201.60;;;;;;4978088;28;20005;-74
2023/11/30 01:25:15;;;;;;;;;;;26.50;2201.60;;;;;;4978300;28;20261;-74
2023/11/30 01:27:40;;;;;;;;;;;26.50;2201.60;;;;;;4978168;28;19910;-72
2023/11/30 01:30:06;;;;;;;;;;;26.40;2201.60;;;;;;4978162;28;19906;-72
2023/11/30 01:32:32;;;;;;;;;;;26.40;2201.60;;;;;;4978283;28;19913;-74
2023/11/30 01:34:57;;;;;;;;;;;26.40;2201.60;;;;;;4978177;28;19906;-74
2023/11/30 01:37:23;;;;;;;;;;;26.40;2201.60;;;;;;4977920;28;19910;-73
2023/11/30 01:39:48;;;;;;;;;;;26.40;2201.60;;;;;;4978131;28;19910;-73
2023/11/30 01:42:14;;;;;;;;;;;26.40;2201.60;;;;;;4977842;28;19912;-73
2023/11/30 01:44:39;;;;;;;;;;;26.40;2201.60;;;;;;4977851;28;19906;-73
2023/11/30 01:47:06;;;;;;;;;;;26.20;2201.60;;;;;;4976530;28;19921;-73
2023/11/30 01:49:31;;;;;;;;;;;26.20;2201.60;;;;;;4977694;28;20391;-72
2023/11/30 01:51:58;;;;;;;;;;;26.20;2201.60;;;;;;4977746;28;19945;-73
2023/11/30 01:54:23;;;;;;;;;;;26.10;2201.60;;;;;;4977670;28;19929;-73
2023/11/30 01:56:49;;;;;;;;;;;26.10;2201.60;;;;;;4977526;28;20360;-73
2023/11/30 01:59:15;;;;;;;;;;;26.00;2201.60;;;;;;4977647;28;19906;-74
2023/11/30 02:01:41;;;;;;;;;;;26.00;2201.60;;;;;;4977724;28;19906;-73
2023/11/30 02:04:10;;;;;;;;;;;26.10;2201.60;;;;;;4977553;28;20372;-72
2023/11/30 02:06:36;;;;;;;;;;;26.10;2201.60;;;;;;4977317;28;19921;-73
2023/11/30 02:09:02;;;;;;;;;;;26.10;2201.60;;;;;;4960251;28;19906;-73
2023/11/30 02:11:27;;;;;;;;;;;26.20;2201.60;;;;;;4992000;28;19913;-72
2023/11/30 02:13:54;;;;;;;;;;;26.20;2201.60;;;;;;4995951;28;19960;-72
2023/11/30 02:16:19;;;;;;;;;;;26.20;2201.60;;;;;;4995483;28;20000;-72
2023/11/30 02:18:45;;;;;;;;;;;26.30;2201.60;;;;;;4995983;28;19960;-75
2023/11/30 02:21:10;;;;;;;;;;;26.30;2201.60;;;;;;4995127;28;19932;-72
2023/11/30 02:23:36;;;;;;;;;;;26.30;2201.60;;;;;;4995350;28;19968;-72
2023/11/30 02:26:01;;;;;;;;;;;26.40;2201.60;;;;;;4977456;28;20001;-72
2023/11/30 02:28:27;;;;;;;;;;;26.20;2201.60;;;;;;4994763;28;19933;-72
2023/11/30 02:30:52;;;;;;;;;;;26.30;2201.60;;;;;;4972065;28;19952;-72
2023/11/30 02:33:18;;;;;;;;;;;26.30;2201.60;;;;;;4995296;28;19906;-73
2023/11/30 02:35:43;;;;;;;;;;;26.20;2201.60;;;;;;4995605;28;19906;-73
2023/11/30 02:38:09;;;;;;;;;;;26.00;2201.60;;;;;;4994977;28;20065;-73
2023/11/30 02:40:34;;;;;;;;;;;26.00;2201.60;;;;;;4995608;28;20356;-73
2023/11/30 02:43:00;;;;;;;;;;;25.90;2201.60;;;;;;4995090;28;20426;-73
2023/11/30 02:45:25;;;;;;;;;;;26.00;2201.60;;;;;;4995044;28;20680;-73
2023/11/30 02:47:51;;;;;;;;;;;26.10;2201.60;;;;;;4994984;28;20349;-73
2023/11/30 02:50:16;;;;;;;;;;;26.10;2201.60;;;;;;4981491;28;19910;-72
2023/11/30 02:52:42;;;;;;;;;;;26.20;2201.60;;;;;;4992727;28;19933;-72
2023/11/30 02:55:08;;;;;;;;;;;26.00;2201.60;;;;;;4994861;28;20396;-72
2023/11/30 02:57:34;;;;;;;;;;;25.90;2201.60;;;;;;4994956;28;19914;-74
2023/11/30 02:59:59;;;;;;;;;;;25.80;2201.60;;;;;;4994471;28;19910;-73
2023/11/30 03:02:25;;;;;;;;;;;25.80;2201.60;;;;;;4994777;28;19960;-73
2023/11/30 03:04:50;;;;;;;;;;;25.90;2201.60;;;;;;4994984;28;19906;-75
2023/11/30 03:07:16;;;;;;;;;;;25.80;2201.60;;;;;;4994556;28;20351;-73
2023/11/30 03:09:41;;;;;;;;;;;25.80;2201.60;;;;;;4994696;28;19953;-72
2023/11/30 03:12:07;;;;;;;;;;;25.90;2201.60;;;;;;4994076;28;19912;-73
2023/11/30 03:14:33;;;;;;;;;;;26.00;2201.60;;;;;;4994287;28;19993;-73
2023/11/30 03:16:58;;;;;;;;;;;26.10;2201.60;;;;;;4994725;28;19913;-73
2023/11/30 03:19:24;;;;;;;;;;;26.10;2201.60;;;;;;4994751;28;19906;-73
2023/11/30 03:21:50;;;;;;;;;;;26.00;2201.60;;;;;;4994126;28;19924;-73
2023/11/30 03:24:16;;;;;;;;;;;25.90;2201.60;;;;;;4991573;28;20030;-75
2023/11/30 03:26:42;;;;;;;;;;;26.00;2201.60;;;;;;4976770;28;19921;-73
2023/11/30 03:29:07;;;;;;;;;;;26.00;2201.60;;;;;;4994592;28;19906;-73
2023/11/30 03:31:33;;;;;;;;;;;26.00;2201.60;;;;;;4994184;28;19912;-73
2023/11/30 03:33:58;;;;;;;;;;;25.90;2201.60;;;;;;4994064;28;19992;-74
2023/11/30 03:36:24;;;;;;;;;;;25.80;2201.60;;;;;;4994016;28;19937;-73
2023/11/30 03:38:55;;;;;;;;;;;25.90;2201.60;;;;;;4993476;28;19960;-73
2023/11/30 03:41:21;;;;;;;;;;;25.90;2201.60;;;;;;4993996;28;19906;-73
2023/11/30 03:43:47;;;;;;;;;;;26.00;2201.60;;;;;;4994023;28;19906;-72
2023/11/30 03:46:13;;;;;;;;;;;26.20;2201.60;;;;;;4969035;28;19979;-72
2023/11/30 03:48:39;;;;;;;;;;;26.20;2201.60;;;;;;4993960;28;20407;-73
2023/11/30 03:51:04;;;;;;;;;;;26.30;2201.60;;;;;;4978333;28;19933;-73
2023/11/30 03:53:30;;;;;;;;;;;26.40;2201.60;;;;;;4993439;28;20265;-73
2023/11/30 03:55:55;;;;;;;;;;;26.30;2201.60;;;;;;4993656;28;19945;-73
2023/11/30 03:58:21;;;;;;;;;;;26.30;2201.60;;;;;;4993712;28;19952;-73
2023/11/30 04:00:46;;;;;;;;;;;26.20;2201.60;;;;;;4993765;28;19909;-74
2023/11/30 04:03:12;;;;;;;;;;;26.10;2201.60;;;;;;4993555;28;19961;-72
2023/11/30 04:05:37;;;;;;;;;;;26.00;2201.60;;;;;;4993367;28;19956;-72
2023/11/30 04:08:03;;;;;;;;;;;26.00;2201.60;;;;;;4993833;28;19920;-72
2023/11/30 04:10:29;;;;;;;;;;;25.80;2201.60;;;;;;4975334;28;20327;-74
2023/11/30 04:12:54;;;;;;;;;;;25.80;2201.60;;;;;;4993502;28;20322;-72
2023/11/30 04:15:20;;;;;;;;;;;25.80;2201.60;;;;;;4991152;28;19913;-73
2023/11/30 04:17:46;;;;;;;;;;;25.70;2201.60;;;;;;4993164;28;19909;-73
2023/11/30 04:20:11;;;;;;;;;;;25.70;2201.60;;;;;;4980891;28;19918;-73
2023/11/30 04:22:37;;;;;;;;;;;25.70;2201.60;;;;;;4989399;28;19922;-73
2023/11/30 04:25:03;;;;;;;;;;;25.70;2201.60;;;;;;4993136;28;19972;-72
2023/11/30 04:27:28;;;;;;;;;;;25.80;2201.60;;;;;;4993477;28;19906;-74
2023/11/30 04:29:54;;;;;;;;;;;25.90;2201.60;;;;;;4988241;28;19905;-73
2023/11/30 04:32:19;;;;;;;;;;;25.90;2201.60;;;;;;4992913;28;19905;-73
2023/11/30 04:34:45;;;;;;;;;;;25.90;2201.60;;;;;;4993195;28;20000;-74
2023/11/30 04:37:10;;;;;;;;;;;25.90;2201.60;;;;;;4993185;28;19949;-73
2023/11/30 04:39:37;;;;;;;;;;;26.00;2201.60;;;;;;4993286;28;19996;-73
2023/11/30 04:42:03;;;;;;;;;;;51.30;2227.20;;;;;;4990425;28;20394;-73
2023/11/30 04:44:28;;;;;;;;;;;26.10;2201.60;;;;;;4991612;28;19945;-72
2023/11/30 04:46:54;;;;;;;;;;;26.20;2201.60;;;;;;4992986;28;19972;-74
2023/11/30 04:49:19;;;;;;;;;;;26.20;2201.60;;;;;;4993372;28;19905;-73
2023/11/30 04:51:45;;;;;;;;;;;26.20;2201.60;;;;;;4992817;28;19968;-72
2023/11/30 04:54:11;;;;;;;;;;;26.20;2201.60;;;;;;4974951;28;19913;-73
2023/11/30 04:56:37;;;;;;;;;;;26.20;2201.60;;;;;;4993171;28;20004;-74
2023/11/30 04:59:03;;;;;;;;;;;26.20;2201.60;;;;;;4992818;28;19905;-74
2023/11/30 05:01:29;;;;;;;;;;;26.20;2201.60;;;;;;4993213;28;20367;-74
2023/11/30 05:03:57;;;;;;;;;;;26.10;2201.60;;;;;;4975502;28;19906;-73
2023/11/30 05:06:23;;;;;;;;;;;26.20;2201.60;;;;;;4992547;28;19918;-74
2023/11/30 05:08:48;;;;;;;;;;;26.10;2201.60;;;;;;4993078;28;20360;-73
2023/11/30 05:11:14;;;;;;;;;;;26.10;2201.60;;;;;;4975394;28;20012;-73
2023/11/30 05:13:39;;;;;;;;;;;26.10;2201.60;;;;;;4993231;28;20391;-74
2023/11/30 05:16:05;;;;;;;;;;;26.10;2201.60;;;;;;4990109;28;19913;-74
2023/11/30 05:18:31;;;;;;;;;;;26.10;2201.60;;;;;;4988036;28;19995;-72
2023/11/30 05:20:56;;;;;;;;;;;26.10;2201.60;;;;;;4983867;28;19914;-73
2023/11/30 05:23:23;;;;;;;;;;;26.10;2201.60;;;;;;4991831;28;19909;-74
2023/11/30 05:25:48;;;;;;;;;;;26.10;2201.60;;;;;;4961663;28;19920;-74
2023/11/30 05:28:14;;;;;;;;;;;26.20;2201.60;;;;;;4974258;28;19993;-74
2023/11/30 05:30:39;;;;;;;;;;;26.20;2201.60;;;;;;4966081;28;19910;-76
2023/11/30 05:33:05;;;;;;;;;;;26.20;2201.60;;;;;;4988545;28;19910;-75
2023/11/30 05:35:31;;;;;;;;;;;26.20;2201.60;;;;;;4970535;28;19906;-75
2023/11/30 05:37:57;;;;;;;;;;;26.20;2201.60;;;;;;4992065;28;19905;-75
2023/11/30 05:40:23;;;;;;;;;;;26.30;2201.60;;;;;;4975077;28;19906;-75
2023/11/30 05:42:48;;;;;;;;;;;26.30;2201.60;;;;;;4968325;28;19956;-74
2023/11/30 05:45:14;;;;;;;;;;;26.40;2201.60;;;;;;4989009;28;19918;-74
2023/11/30 05:47:39;;;;;;;;;;;26.40;2201.60;;;;;;4990419;28;19958;-76
2023/11/30 05:50:05;;;;;;;;;;;26.50;2201.60;;;;;;4991480;28;19994;-73
2023/11/30 05:52:31;;;;;;;;;;;26.50;2201.60;;;;;;4988221;28;19910;-75
2023/11/30 05:54:57;;;;;;;;;;;26.40;2201.60;;;;;;4975755;28;20407;-75
2023/11/30 05:57:23;;;;;;;;;;;26.40;2201.60;;;;;;4985916;28;19960;-73
2023/11/30 05:59:48;;;;;;;;;;;26.40;2201.60;;;;;;4969921;28;20363;-73
2023/11/30 06:02:16;;;;;;;;;;;26.30;2201.60;;;;;;4976518;28;20249;-74
2023/11/30 06:04:53;;;;;;;;;;;26.30;2201.60;;;;;;4974617;28;19906;-74
2023/11/30 06:07:19;;;;;;;;;;;26.40;2201.60;;;;;;4974414;28;20012;-74
2023/11/30 06:09:45;;;;;;;;;;;51.20;2227.20;;;;;;4995390;28;19933;-74
2023/11/30 06:12:11;;;;;;;;;;;26.50;2201.60;;;;;;4978672;28;20275;-73
2023/11/30 06:14:37;;;;;;;;;;;26.40;2201.60;;;;;;4993922;28;20360;-75
2023/11/30 06:17:03;;;;;;;;;;;51.20;2227.20;;;;;;4995699;28;19948;-75
2023/11/30 06:19:28;;;;;;;;;;;51.20;2227.20;;;;;;4972196;28;19910;-75
2023/11/30 06:21:54;;;;;;;;;;;51.30;2227.20;;;;;;4992882;28;20072;-75
2023/11/30 06:24:19;;;;;;;;;;;51.40;2227.20;;;;;;4992020;28;19910;-75
2023/11/30 06:26:45;;;;;;;;;;;51.50;2227.20;;;;;;4989491;28;19922;-75
2023/11/30 06:29:11;;;;;;;;;;;51.60;2227.20;;;;;;4984569;28;19964;-73
2023/11/30 06:31:37;;;;;;;;;;;51.80;2227.20;;;;;;4993889;28;19910;-74
2023/11/30 06:34:03;;;;;;;;;;;51.70;2227.20;;;;;;4987894;28;19912;-73
2023/11/30 06:36:28;;;;;;;;;;;51.80;2227.20;;;;;;4990108;28;19906;-73
2023/11/30 06:38:54;;;;;;;;;;;51.90;2227.20;;;;;;4991086;28;19907;-73
2023/11/30 06:41:19;;;;;;;;;;;51.90;2227.20;;;;;;4993955;28;19916;-73
2023/11/30 06:43:45;;;;;;;;;;;51.90;2227.20;;;;;;4992587;28;20004;-75
2023/11/30 06:46:20;;;;;;;;;;;52.00;2227.20;;;;;;4993762;28;19967;-75
2023/11/30 06:48:47;;;;;;;;;;;52.10;2227.20;;;;;;4992005;28;20004;-74
2023/11/30 06:51:13;;;;;;;;;;;52.00;2227.20;;;;;;4987518;28;19917;-74
2023/11/30 06:53:38;;;;;;;;;;;51.90;2227.20;;;;;;4989752;28;19910;-74
2023/11/30 06:56:04;;;;;;;;;;;52.10;2227.20;;;;;;4985281;28;19953;-76
2023/11/30 06:58:29;;;;;;;;;;;52.10;2227.20;;;;;;4975068;28;20379;-75
2023/11/30 07:00:55;;;;;;;;;;;76.80;2227.20;;;;;;4990417;28;20344;-74
2023/11/30 07:03:20;;;;;;;;;;;76.90;2227.20;;;;;;4990543;28;20356;-74
2023/11/30 07:05:46;;;;;;;;;;;76.90;2227.20;;;;;;4989909;28;19949;-76
2023/11/30 07:08:11;;;;;;;;;;;77.00;2227.20;;;;;;4975857;28;20310;-74
2023/11/30 07:10:37;;;;;;;;;;;77.00;2227.20;;;;;;4992059;28;19997;-74
2023/11/30 07:13:03;;;;;;;;;;;77.00;2227.20;;;;;;4992020;28;19913;-76
2023/11/30 07:15:28;;;;;;;;;;;77.00;2227.20;;;;;;4971902;28;20016;-74
2023/11/30 07:17:54;;;;;;;;;;;77.00;2227.20;;;;;;4967637;28;19936;-78
2023/11/30 07:20:19;;;;;;;;;;;77.00;2227.20;;;;;;4970735;28;19913;-75
2023/11/30 07:22:45;;;;;;;;;;;77.00;2227.20;;;;;;4974843;28;19976;-74
2023/11/30 07:25:10;;;;;;;;;;;77.00;2227.20;;;;;;4977210;28;19948;-75
2023/11/30 07:27:36;;;;;;;;;;;77.10;2227.20;;;;;;4966681;28;19913;-75
2023/11/30 07:30:01;;;;;;;;;;;77.10;2227.20;;;;;;4986697;28;19938;-75
2023/11/30 07:32:27;;;;;;;;;;;77.10;2227.20;;;;;;4984388;28;19949;-75
2023/11/30 07:34:53;;;;;;;;;;;77.10;2227.20;;;;;;4972313;28;20279;-75
2023/11/30 07:37:20;;;;;;;;;;;77.10;2227.20;;;;;;4987492;28;19906;-76
2023/11/30 07:39:46;;;;;;;;;;;77.10;2227.20;;;;;;4972119;28;19910;-75
2023/11/30 07:42:16;;;;;;;;;;;77.10;2227.20;;;;;;4970051;28;19913;-75
2023/11/30 07:44:41;;;;;;;;;;;77.10;2227.20;;;;;;4964742;28;20004;-75
2023/11/30 07:47:07;;;;;;;;;;;77.20;2227.20;;;;;;4977044;28;20009;-75
2023/11/30 07:49:33;;;;;;;;;;;77.20;2227.20;;;;;;4984807;28;19948;-74
2023/11/30 07:51:58;;;;;;;;;;;77.20;2227.20;;;;;;4993084;28;20387;-76
2023/11/30 07:54:24;;;;;;;;;;;77.30;2227.20;;;;;;4988793;28;19906;-79
2023/11/30 07:56:50;;;;;;;;;;;77.30;2227.20;;;;;;4987238;28;19914;-74
2023/11/30 07:59:15;;;;;;;;;;;77.30;2227.20;;;;;;4988153;28;19905;-74
2023/11/30 08:01:42;;;;;;;;;;;77.30;2227.20;;;;;;4994681;28;20012;-74
2023/11/30 08:04:08;;;;;;;;;;;77.40;2227.20;;;;;;4990489;28;19906;-74
2023/11/30 08:06:34;;;;;;;;;;;77.50;2227.20;;;;;;4988392;28;19928;-74
2023/11/30 08:08:59;;;;;;;;;;;77.50;2227.20;;;;;;4987820;28;19914;-75
2023/11/30 08:11:25;;;;;;;;;;;77.50;2227.20;;;;;;4988041;28;19906;-75
2023/11/30 08:13:51;;;;;;;;;;;77.50;2227.20;;;;;;4990714;28;19941;-74
2023/11/30 08:16:16;;;;;;;;;;;77.50;2227.20;;;;;;4991170;28;19905;-74
2023/11/30 08:18:42;;;;;;;;;;;77.50;2227.20;;;;;;4988669;28;20422;-74
2023/11/30 08:21:08;;;;;;;;;;;77.50;2227.20;;;;;;4989909;28;20387;-74
2023/11/30 08:23:35;;;;;;;;;;;77.50;2227.20;;;;;;4971351;28;20203;-74
2023/11/30 08:26:02;;;;;;;;;;;77.50;2227.20;;;;;;4973170;28;19914;-74
2023/11/30 08:28:28;;;;;;;;;;;77.50;2227.20;;;;;;4986929;28;19969;-74
2023/11/30 08:30:54;;;;;;;;;;;77.60;2227.20;;;;;;4990560;28;20367;-73
2023/11/30 08:33:19;;;;;;;;;;;77.60;2227.20;;;;;;4989994;28;20355;-75
2023/11/30 08:35:45;;;;;;;;;;;77.70;2227.20;;;;;;4991498;28;19913;-73
2023/11/30 08:38:11;;;;;;;;;;;102.40;2227.20;;;;;;4982582;28;19910;-74
2023/11/30 08:40:37;;;;;;;;;;;102.40;2227.20;;;;;;4986561;28;19905;-74
2023/11/30 08:43:02;;;;;;;;;;;102.50;2227.20;;;;;;4967859;28;19910;-74
2023/11/30 08:45:28;;;;;;;;;;;102.70;2227.20;;;;;;4975169;28;19906;-74
2023/11/30 08:47:54;;;;;;;;;;;102.70;2227.20;;;;;;4986252;28;19913;-73
2023/11/30 08:50:19;;;;;;;;;;;102.60;2227.20;;;;;;4974769;28;20260;-73
2023/11/30 08:52:45;;;;;;;;;;;102.60;2227.20;;;;;;4988858;28;19918;-73
2023/11/30 08:55:11;;;;;;;;;;;102.60;2227.20;;;;;;4986230;28;19906;-73
2023/11/30 08:57:37;;;;;;;;;;;102.60;2227.20;;;;;;4989576;28;19912;-73
2023/11/30 09:00:07;;;;;;;;;;;102.60;2227.20;;;;;;4965029;28;19910;-74
2023/11/30 09:02:34;;;;;;;;;;;102.60;2227.20;;;;;;4964911;28;19906;-74
2023/11/30 09:04:59;;;;;;;;;;;102.60;2227.20;;;;;;4988239;28;19914;-73
2023/11/30 09:07:25;;;;;;;;;;;102.60;2227.20;;;;;;4982146;28;19920;-73
2023/11/30 09:09:50;;;;;;;;;;;102.60;2227.20;;;;;;4991846;28;19917;-73
2023/11/30 09:12:16;;;;;;;;;;;102.60;2227.20;;;;;;4987720;28;20356;-73
2023/11/30 09:14:42;;;;;;;;;;;102.60;2227.20;;;;;;4985706;28;19905;-74
2023/11/30 09:17:07;;;;;;;;;;;102.70;2227.20;;;;;;4993868;28;20267;-74
2023/11/30 09:19:33;;;;;;;;;;;102.70;2227.20;;;;;;4983865;28;20415;-74
2023/11/30 09:21:58;;;;;;;;;;;102.80;2227.20;;;;;;4986924;28;19926;-74
2023/11/30 09:24:24;;;;;;;;;;;102.80;2227.20;;;;;;4985305;28;20259;-74
2023/11/30 09:26:53;;;;;;;;;;;102.90;2227.20;;;;;;4986605;28;19914;-74
2023/11/30 09:29:18;;;;;;;;;;;103.00;2227.20;;;;;;4990248;28;19960;-74
2023/11/30 09:31:47;;;;;;;;;;;103.00;2227.20;;;;;;4986640;28;19942;-73
2023/11/30 09:34:13;;;;;;;;;;;103.00;2227.20;;;;;;4976065;28;19906;-73
2023/11/30 09:36:39;;;;;;;;;;;103.10;2227.20;;;;;;4984726;28;19952;-74
2023/11/30 09:39:07;;;;;;;;;;;103.00;2227.20;;;;;;4986372;28;19906;-74
2023/11/30 09:41:39;;;;;;;;;;;103.10;2227.20;;;;;;4985388;28;19913;-73
2023/11/30 09:44:05;;;;;;;;;;;103.10;2227.20;;;;;;4992223;28;20404;-74
2023/11/30 09:46:33;;;;;;;;;;;103.20;2227.20;;;;;;4987268;28;19913;-77
2023/11/30 09:48:59;;;;;;;;;;;103.20;2227.20;;;;;;4987472;28;19906;-74
2023/11/30 09:51:26;;;;;;;;;;;103.20;2227.20;;;;;;4995345;28;20051;-74
2023/11/30 09:53:52;;;;;;;;;;;103.30;2227.20;;;;;;4986339;28;20364;-75
2023/11/30 09:56:17;;;;;;;;;;;103.30;2227.20;;;;;;4988212;28;20086;-72
2023/11/30 09:58:43;;;;;;;;;;;128.00;2252.80;;;;;;4992001;28;19906;-73
2023/11/30 10:01:08;;;;;;;;;;;128.10;2252.80;;;;;;4996159;28;19952;-73
2023/11/30 10:03:34;;;;;;;;;;;128.10;2252.80;;;;;;4987826;28;19996;-73
2023/11/30 10:06:00;;;;;;;;;;;128.20;2252.80;;;;;;4981726;28;19917;-73
2023/11/30 10:08:26;;;;;;;;;;;128.30;2252.80;;;;;;4994395;28;19906;-73
2023/11/30 10:10:52;;;;;;;;;;;128.30;2252.80;;;;;;4991184;28;19916;-74
2023/11/30 10:13:17;;;;;;;;;;;128.40;2252.80;;;;;;4993107;28;19928;-72
2023/11/30 10:15:45;;;;;;;;;;;128.40;2252.80;;;;;;4983671;28;19906;-75
2023/11/30 10:18:11;;;;;;;;;;;128.50;2252.80;;;;;;4990846;28;20282;-73
2023/11/30 10:20:37;;;;;;;;;;;128.60;2252.80;;;;;;4995317;28;19963;-72
2023/11/30 10:23:09;;;;;;;;;;;128.60;2252.80;;;;;;4988929;28;20987;-73
2023/11/30 10:25:35;;;;;;;;;;;128.50;2252.80;;;;;;4993459;28;20378;-73
2023/11/30 10:28:01;;;;;;;;;;;128.70;2252.80;;;;;;4973446;28;19906;-73
2023/11/30 10:30:27;;;;;;;;;;;128.60;2252.80;;;;;;4986361;28;19952;-73
2023/11/30 10:32:54;;;;;;;;;;;128.60;2252.80;;;;;;4990467;28;20291;-72
2023/11/30 10:35:20;;;;;;;;;;;128.60;2252.80;;;;;;4988998;28;19914;-73
2023/11/30 10:37:48;;;;;;;;;;;128.60;2252.80;;;;;;4984563;28;19912;-74
2023/11/30 10:40:15;;;;;;;;;;;128.60;2252.80;;;;;;4987774;28;20004;-74
2023/11/30 10:42:43;;;;;;;;;;;128.60;2252.80;;;;;;4991175;28;19906;-74
2023/11/30 10:45:11;;;;;;;;;;;128.60;2252.80;;;;;;4987093;28;19977;-74
2023/11/30 10:47:38;;;;;;;;;;;128.60;2252.80;;;;;;4988239;28;19920;-75
2023/11/30 10:50:05;;;;;;;;;;;128.70;2252.80;;;;;;4970672;28;19917;-73
2023/11/30 10:52:32;;;;;;;;;;;128.70;2252.80;;;;;;4987394;28;19957;-74
2023/11/30 10:55:05;;;;;;;;;;;128.70;2252.80;;;;;;4988926;28;19941;-74
2023/11/30 10:57:31;;;;;;;;;;;128.70;2252.80;;;;;;4985755;28;19910;-73
2023/11/30 10:59:59;;;;;;;;;;;128.70;2252.80;;;;;;4992746;28;19906;-73
2023/11/30 11:02:35;;;;;;;;;;;128.80;2252.80;;;;;;4990813;28;20308;-74
2023/11/30 11:05:01;;;;;;;;;;;128.80;2252.80;;;;;;4993456;28;19906;-74
2023/11/30 11:07:27;;;;;;;;;;;128.80;2252.80;;;;;;4983597;28;19921;-73
2023/11/30 11:09:55;;;;;;;;;;;128.80;2252.80;;;;;;4993988;28;19963;-75
2023/11/30 11:12:25;;;;;;;;;;;128.80;2252.80;;;;;;4972267;28;19909;-75
2023/11/30 11:14:51;;;;;;;;;;;128.90;2252.80;;;;;;4966955;28;19917;-74
2023/11/30 11:17:20;;;;;;;;;;;128.60;2252.80;;;;;;4987330;28;19912;-74
2023/11/30 11:19:45;;;;;;;;;;;128.90;2252.80;;;;;;4987606;28;20008;-74
2023/11/30 11:22:15;;;;;;;;;;;128.90;2252.80;;;;;;4981667;28;19961;-74
2023/11/30 11:24:41;;;;;;;;;;;128.90;2252.80;;;;;;4992252;28;20344;-75
2023/11/30 11:27:06;;;;;;;;;;;128.90;2252.80;;;;;;4988485;28;19914;-74
2023/11/30 11:29:32;;;;;;;;;;;128.90;2252.80;;;;;;4978559;28;20001;-75
2023/11/30 11:31:59;;;;;;;;;;;128.90;2252.80;;;;;;4970890;28;20044;-74
2023/11/30 11:34:24;;;;;;;;;;;128.90;2252.80;;;;;;4986848;28;19906;-75
2023/11/30 11:36:50;;;;;;;;;;;128.90;2252.80;;;;;;4985689;28;19910;-76
2023/11/30 11:39:19;;;;;;;;;;;128.90;2252.80;;;;;;4972774;28;20041;-75
2023/11/30 11:41:48;;;;;;;;;;;128.90;2252.80;;;;;;4985444;28;19905;-76
2023/11/30 11:44:13;;;;;;;;;;;128.90;2252.80;;;;;;4984546;28;19906;-74
2023/11/30 11:46:39;;;;;;;;;;;128.90;2252.80;;;;;;4964348;28;19925;-76
2023/11/30 11:49:05;;;;;;;;;;;128.90;2252.80;;;;;;4979769;28;19905;-76
2023/11/30 11:51:41;;;;;;;;;;;153.60;2252.80;;;;;;4988569;28;19949;-75
2023/11/30 11:54:06;;;;;;;;;;;153.70;2252.80;;;;;;4982767;28;20374;-75
2023/11/30 11:56:32;;;;;;;;;;;153.60;2252.80;;;;;;4986761;28;20000;-74
2023/11/30 11:58:57;;;;;;;;;;;153.60;2252.80;;;;;;4989277;28;20376;-76
2023/11/30 12:01:23;;;;;;;;;;;153.80;2252.80;;;;;;4967564;28;19956;-75
2023/11/30 12:03:50;;;;;;;;;;;153.80;2252.80;;;;;;4983396;28;20353;-75
2023/11/30 12:06:28;;;;;;;;;;;153.90;2252.80;;;;;;4964786;28;19918;-76
2023/11/30 12:08:54;;;;;;;;;;;154.00;2252.80;;;;;;4992540;28;19933;-75
2023/11/30 12:11:20;;;;;;;;;;;154.10;2252.80;;;;;;4988097;28;19913;-75
2023/11/30 12:13:49;;;;;;;;;;;154.10;2252.80;;;;;;4974282;28;19910;-74
2023/11/30 12:16:15;;;;;;;;;;;154.20;2252.80;;;;;;4985260;28;19906;-75
2023/11/30 12:18:40;;;;;;;;;;;154.20;2252.80;;;;;;4988914;28;19906;-75
2023/11/30 12:21:06;;;;;;;;;;;154.10;2252.80;;;;;;4991312;28;20348;-76
2023/11/30 12:23:32;;;;;;;;;;;154.30;2252.80;;;;;;4987584;28;19957;-73
2023/11/30 12:25:57;;;;;;;;;;;154.40;2252.80;;;;;;4993149;28;19953;-75
2023/11/30 12:28:23;;;;;;;;;;;154.50;2252.80;;;;;;4973400;28;20288;-75
2023/11/30 12:30:48;;;;;;;;;;;154.50;2252.80;;;;;;4965122;28;20000;-75
2023/11/30 12:33:14;;;;;;;;;;;179.20;2252.80;;;;;;4981730;28;19906;-75
2023/11/30 12:35:39;;;;;;;;;;;179.30;2252.80;;;;;;4991253;28;19934;-76
2023/11/30 12:38:05;;;;;;;;;;;179.30;2252.80;;;;;;4982787;28;20279;-75
2023/11/30 12:40:31;;;;;;;;;;;179.30;2252.80;;;;;;4987553;28;19956;-74
2023/11/30 12:42:56;;;;;;;;;;;179.40;2252.80;;;;;;4988661;28;20000;-74
2023/11/30 12:45:22;;;;;;;;;;;179.40;2252.80;;;;;;4985473;28;20351;-75
2023/11/30 12:47:49;;;;;;;;;;;179.40;2252.80;;;;;;4986803;28;19906;-78
2023/11/30 12:50:15;;;;;;;;;;;179.50;2252.80;;;;;;4987616;28;19909;-74
2023/11/30 12:52:41;;;;;;;;;;;179.50;2252.80;;;;;;4962446;28;19917;-74
2023/11/30 12:55:07;;;;;;;;;;;179.60;2252.80;;;;;;4964338;28;19953;-75
2023/11/30 12:57:34;;;;;;;;;;;179.60;2252.80;;;;;;4981795;28;19906;-74
2023/11/30 13:00:00;;;;;;;;;;;179.60;2252.80;;;;;;4991217;28;19969;-77
2023/11/30 13:02:27;;;;;;;;;;;179.60;2252.80;;;;;;4988190;28;19906;-78
2023/11/30 13:04:53;;;;;;;;;;;179.60;2252.80;;;;;;4988437;28;19905;-77
2023/11/30 13:07:19;;;;;;;;;;;179.60;2252.80;;;;;;4980992;28;20025;-76
2023/11/30 13:09:44;;;;;;;;;;;179.60;2252.80;;;;;;4966301;28;19918;-77
2023/11/30 13:12:10;;;;;;;;;;;179.60;2252.80;;;;;;4978842;28;20283;-75
2023/11/30 13:14:36;;;;;;;;;;;179.60;2252.80;;;;;;4989823;28;19917;-78
2023/11/30 13:17:04;;;;;;;;;;;179.60;2252.80;;;;;;4998293;28;19975;-75
2023/11/30 13:19:30;;;;;;;;;;;179.60;2252.80;;;;;;4974272;28;19909;-76
2023/11/30 13:21:55;;;;;;;;;;;179.70;2252.80;;;;;;4975687;28;20291;-78
2023/11/30 13:24:23;;;;;;;;;;;205.10;2252.80;;;;;;4991175;28;19925;-76
2023/11/30 13:26:48;;;;;;;;;;;179.80;2252.80;;;;;;4978506;28;19917;-76
2023/11/30 13:29:14;;;;;;;;;;;179.80;2252.80;;;;;;4973627;28;19912;-76
2023/11/30 13:31:40;;;;;;;;;;;179.90;2252.80;;;;;;4992683;28;19913;-78
2023/11/30 13:34:05;;;;;;;;;;;179.80;2252.80;;;;;;4997854;28;19905;-77
2023/11/30 13:36:31;;;;;;;;;;;180.00;2252.80;;;;;;4976647;28;20271;-76
2023/11/30 13:38:57;;;;;;;;;;;180.00;2252.80;;;;;;4991950;28;19944;-77
2023/11/30 13:41:23;;;;;;;;;;;180.00;2252.80;;;;;;4988149;28;20318;-76